createdAt,value
2019-04-21T00:00:21.102Z,970.46
2019-04-21T00:15:48.462Z,963.13
2019-04-21T00:31:24.238Z,963.16
2019-04-21T00:46:08.341Z,963.16
2019-04-21T01:01:47.583Z,963.08
2019-04-21T01:16:57.206Z,963.35
2019-04-21T01:31:35.938Z,963.35
2019-04-21T01:46:29.228Z,963.35
2019-04-21T02:01:13.247Z,963.46
2019-04-21T02:16:51.873Z,963.51
2019-04-21T02:31:35.691Z,963.57
2019-04-21T02:47:16.360Z,963.84
2019-04-21T03:02:40.481Z,963.81
2019-04-21T03:17:21.564Z,964
2019-04-21T03:32:13.525Z,964
2019-04-21T03:47:22.594Z,964.11
2019-04-21T04:03:07.171Z,964.19
2019-04-21T04:17:53.748Z,964.22
2019-04-21T04:32:28.284Z,964.27
2019-04-21T04:47:40.897Z,964.3
2019-04-21T05:02:55.773Z,964.22
2019-04-21T05:17:50.282Z,964.14
2019-04-21T05:31:44.070Z,964.11
2019-04-21T05:46:31.288Z,963.84
2019-04-21T06:02:28.703Z,963.57
2019-04-21T06:16:55.397Z,963.38
2019-04-21T06:32:51.998Z,963.05
2019-04-21T06:46:44.499Z,962.53
2019-04-21T07:01:30.645Z,961.69
2019-04-21T07:16:38.304Z,968.32
2019-04-21T07:32:13.844Z,967.8
2019-04-21T07:46:09.992Z,965.85
2019-04-21T08:01:54.707Z,965.19
2019-04-21T08:16:50.910Z,965.02
2019-04-21T08:31:38.061Z,961.54
2019-04-21T08:46:45.890Z,962.42
2019-04-21T09:02:01.167Z,963.02
2019-04-21T09:16:24.758Z,967.7
2019-04-21T09:30:10.760Z,961.48
2019-04-21T09:45:15.472Z,963.3
2019-04-21T10:00:29.006Z,963.49
2019-04-21T10:15:04.511Z,963.3
2019-04-21T10:30:05.927Z,963.02
2019-04-21T10:45:05.412Z,962.8
2019-04-21T11:00:15.306Z,962.55
2019-04-21T11:15:05.491Z,962.28
2019-04-21T11:30:05.584Z,961.92
2019-04-21T11:45:04.407Z,961.7
2019-04-21T12:00:07.142Z,961.46
2019-04-21T12:15:06.263Z,961.37
2019-04-21T12:30:17.825Z,961.24
2019-04-21T12:45:05.909Z,960.85
2019-04-21T13:00:09.073Z,960.55
2019-04-21T13:15:15.897Z,960.22
2019-04-21T13:30:08.355Z,959.67
2019-04-21T13:45:12.366Z,959.37
2019-04-21T14:00:06.266Z,958.93
2019-04-21T14:15:04.498Z,958.74
2019-04-21T14:30:05.126Z,958.33
2019-04-21T14:45:05.253Z,958.25
2019-04-21T15:00:05.131Z,958.16
2019-04-21T15:15:05.882Z,958.03
2019-04-21T15:30:05.031Z,957.86
2019-04-21T15:45:04.269Z,957.75
2019-04-21T16:00:06.593Z,957.48
2019-04-21T16:15:05.237Z,957.37
2019-04-21T16:30:05.665Z,957.31
2019-04-21T16:45:05.521Z,957.26
2019-04-21T17:00:04.845Z,957.15
2019-04-21T17:16:40.199Z,957.12
2019-04-21T17:30:04.700Z,957.26
2019-04-21T17:45:05.707Z,957.59
2019-04-21T18:02:14.402Z,957.86
2019-04-21T18:16:30.202Z,958.33
2019-04-21T18:30:06.737Z,958.58
2019-04-21T18:46:58.148Z,958.85
2019-04-21T19:00:38.106Z,959.15
2019-04-21T19:17:03.971Z,959.43
2019-04-21T19:31:44.212Z,959.67
2019-04-21T19:46:22.088Z,959.92
2019-04-21T20:00:13.307Z,960.03
2019-04-21T20:31:34.984Z,960.19
2019-04-21T21:01:34.563Z,960.58
2019-04-21T21:16:41.074Z,960.77
2019-04-21T21:31:12.844Z,960.91
2019-04-21T21:45:29.255Z,961.02
2019-04-21T22:00:18.954Z,961.35
2019-04-21T22:15:28.113Z,961.37
2019-04-21T22:30:42.651Z,961.62
2019-04-21T22:45:05.287Z,961.9
2019-04-21T23:00:20.372Z,954.7
2019-04-21T23:15:28.812Z,954.7
2019-04-21T23:31:45.887Z,954.83
2019-04-21T23:45:12.287Z,954.97
